sensor_id;sensor_type;location;lat;lon;timestamp;P1;durP1;ratioP1;P2;durP2;ratioP2
37483;SDS011;23337;52.212;9.926;2023-03-22T00:01:08;7.60;;;5.70;;
37483;SDS011;23337;52.212;9.926;2023-03-22T00:03:34;9.20;;;5.63;;
37483;SDS011;23337;52.212;9.926;2023-03-22T00:06:00;8.60;;;6.33;;
37483;SDS011;23337;52.212;9.926;2023-03-22T00:08:26;6.33;;;5.60;;
37483;SDS011;23337;52.212;9.926;2023-03-22T00:10:52;9.73;;;6.60;;
37483;SDS011;23337;52.212;9.926;2023-03-22T00:13:18;8.00;;;6.67;;
37483;SDS011;23337;52.212;9.926;2023-03-22T00:15:44;8.53;;;6.97;;
37483;SDS011;23337;52.212;9.926;2023-03-22T00:18:13;6.47;;;5.87;;
37483;SDS011;23337;52.212;9.926;2023-03-22T00:20:49;10.07;;;6.93;;
37483;SDS011;23337;52.212;9.926;2023-03-22T00:23:16;8.50;;;7.20;;
37483;SDS011;23337;52.212;9.926;2023-03-22T00:25:42;12.80;;;7.90;;
37483;SDS011;23337;52.212;9.926;2023-03-22T00:28:09;9.90;;;7.57;;
37483;SDS011;23337;52.212;9.926;2023-03-22T00:30:34;10.50;;;7.90;;
37483;SDS011;23337;52.212;9.926;2023-03-22T00:33:00;11.90;;;7.13;;
37483;SDS011;23337;52.212;9.926;2023-03-22T00:35:26;10.60;;;8.13;;
37483;SDS011;23337;52.212;9.926;2023-03-22T00:37:52;10.90;;;8.33;;
37483;SDS011;23337;52.212;9.926;2023-03-22T00:40:18;10.37;;;8.67;;
37483;SDS011;23337;52.212;9.926;2023-03-22T00:42:44;9.30;;;7.73;;
37483;SDS011;23337;52.212;9.926;2023-03-22T00:45:10;9.13;;;8.13;;
37483;SDS011;23337;52.212;9.926;2023-03-22T00:47:36;9.77;;;8.27;;
37483;SDS011;23337;52.212;9.926;2023-03-22T00:50:03;9.53;;;8.53;;
37483;SDS011;23337;52.212;9.926;2023-03-22T00:52:29;11.50;;;9.17;;
37483;SDS011;23337;52.212;9.926;2023-03-22T00:54:55;10.43;;;9.33;;
37483;SDS011;23337;52.212;9.926;2023-03-22T00:57:21;12.73;;;9.43;;
37483;SDS011;23337;52.212;9.926;2023-03-22T00:59:47;12.37;;;9.73;;
37483;SDS011;23337;52.212;9.926;2023-03-22T01:02:13;10.37;;;9.23;;
37483;SDS011;23337;52.212;9.926;2023-03-22T01:04:40;11.67;;;9.47;;
37483;SDS011;23337;52.212;9.926;2023-03-22T01:07:15;10.27;;;8.50;;
37483;SDS011;23337;52.212;9.926;2023-03-22T01:09:48;11.93;;;9.53;;
37483;SDS011;23337;52.212;9.926;2023-03-22T01:12:15;10.43;;;9.13;;
37483;SDS011;23337;52.212;9.926;2023-03-22T01:14:41;10.50;;;9.23;;
37483;SDS011;23337;52.212;9.926;2023-03-22T01:17:08;10.77;;;9.10;;
37483;SDS011;23337;52.212;9.926;2023-03-22T01:19:34;11.83;;;10.03;;
37483;SDS011;23337;52.212;9.926;2023-03-22T01:22:01;11.17;;;10.07;;
37483;SDS011;23337;52.212;9.926;2023-03-22T01:24:27;12.43;;;9.30;;
37483;SDS011;23337;52.212;9.926;2023-03-22T01:26:53;14.27;;;10.13;;
37483;SDS011;23337;52.212;9.926;2023-03-22T01:29:19;13.47;;;11.10;;
37483;SDS011;23337;52.212;9.926;2023-03-22T01:31:45;13.83;;;10.60;;
37483;SDS011;23337;52.212;9.926;2023-03-22T01:34:11;13.40;;;10.93;;
37483;SDS011;23337;52.212;9.926;2023-03-22T01:36:37;11.50;;;10.17;;
37483;SDS011;23337;52.212;9.926;2023-03-22T01:39:03;12.03;;;10.70;;
37483;SDS011;23337;52.212;9.926;2023-03-22T01:41:29;14.67;;;12.60;;
37483;SDS011;23337;52.212;9.926;2023-03-22T01:44:15;12.63;;;11.33;;
37483;SDS011;23337;52.212;9.926;2023-03-22T01:46:42;14.87;;;11.57;;
37483;SDS011;23337;52.212;9.926;2023-03-22T01:49:10;13.30;;;11.90;;
37483;SDS011;23337;52.212;9.926;2023-03-22T01:51:37;16.70;;;12.03;;
37483;SDS011;23337;52.212;9.926;2023-03-22T01:54:07;15.13;;;12.10;;
37483;SDS011;23337;52.212;9.926;2023-03-22T01:56:35;15.43;;;12.90;;
37483;SDS011;23337;52.212;9.926;2023-03-22T01:59:01;14.40;;;12.90;;
37483;SDS011;23337;52.212;9.926;2023-03-22T02:01:28;15.03;;;13.00;;
37483;SDS011;23337;52.212;9.926;2023-03-22T02:03:58;17.33;;;14.00;;
37483;SDS011;23337;52.212;9.926;2023-03-22T02:06:27;16.57;;;12.77;;
37483;SDS011;23337;52.212;9.926;2023-03-22T02:08:54;18.00;;;13.00;;
37483;SDS011;23337;52.212;9.926;2023-03-22T02:11:32;15.50;;;13.43;;
37483;SDS011;23337;52.212;9.926;2023-03-22T02:26:38;15.63;;;13.67;;
37483;SDS011;23337;52.212;9.926;2023-03-22T02:37:16;16.43;;;14.33;;
37483;SDS011;23337;52.212;9.926;2023-03-22T02:39:56;18.63;;;14.47;;
37483;SDS011;23337;52.212;9.926;2023-03-22T02:55:01;17.30;;;13.70;;
37483;SDS011;23337;52.212;9.926;2023-03-22T02:58:05;16.10;;;14.13;;
37483;SDS011;23337;52.212;9.926;2023-03-22T03:00:23;17.60;;;14.03;;
37483;SDS011;23337;52.212;9.926;2023-03-22T03:02:52;13.63;;;12.23;;
37483;SDS011;23337;52.212;9.926;2023-03-22T03:05:19;13.93;;;12.30;;
37483;SDS011;23337;52.212;9.926;2023-03-22T03:07:50;14.10;;;12.53;;
37483;SDS011;23337;52.212;9.926;2023-03-22T03:10:17;15.90;;;12.03;;
37483;SDS011;23337;52.212;9.926;2023-03-22T03:12:44;13.60;;;12.13;;
37483;SDS011;23337;52.212;9.926;2023-03-22T03:15:20;17.50;;;12.23;;
37483;SDS011;23337;52.212;9.926;2023-03-22T03:17:52;14.33;;;12.53;;
37483;SDS011;23337;52.212;9.926;2023-03-22T03:28:16;14.93;;;11.77;;
37483;SDS011;23337;52.212;9.926;2023-03-22T03:31:02;15.80;;;12.50;;
37483;SDS011;23337;52.212;9.926;2023-03-22T03:33:31;17.30;;;12.93;;
37483;SDS011;23337;52.212;9.926;2023-03-22T03:36:00;16.60;;;13.30;;
37483;SDS011;23337;52.212;9.926;2023-03-22T03:38:27;16.20;;;13.07;;
37483;SDS011;23337;52.212;9.926;2023-03-22T03:40:56;19.50;;;14.13;;
37483;SDS011;23337;52.212;9.926;2023-03-22T03:43:22;14.20;;;12.03;;
37483;SDS011;23337;52.212;9.926;2023-03-22T03:45:50;14.53;;;12.87;;
37483;SDS011;23337;52.212;9.926;2023-03-22T03:48:20;17.20;;;12.90;;
37483;SDS011;23337;52.212;9.926;2023-03-22T03:50:47;15.73;;;12.70;;
37483;SDS011;23337;52.212;9.926;2023-03-22T03:53:15;16.30;;;13.63;;
37483;SDS011;23337;52.212;9.926;2023-03-22T03:55:41;16.37;;;13.37;;
37483;SDS011;23337;52.212;9.926;2023-03-22T03:58:07;18.53;;;13.77;;
37483;SDS011;23337;52.212;9.926;2023-03-22T04:00:33;17.07;;;14.27;;
37483;SDS011;23337;52.212;9.926;2023-03-22T04:02:59;15.83;;;14.17;;
37483;SDS011;23337;52.212;9.926;2023-03-22T04:05:25;16.50;;;14.10;;
37483;SDS011;23337;52.212;9.926;2023-03-22T04:07:51;15.77;;;12.73;;
37483;SDS011;23337;52.212;9.926;2023-03-22T04:10:17;17.30;;;13.40;;
37483;SDS011;23337;52.212;9.926;2023-03-22T04:12:43;16.07;;;13.73;;
37483;SDS011;23337;52.212;9.926;2023-03-22T04:15:09;16.70;;;14.40;;
37483;SDS011;23337;52.212;9.926;2023-03-22T04:17:36;16.53;;;13.73;;
37483;SDS011;23337;52.212;9.926;2023-03-22T04:20:03;17.93;;;14.27;;
37483;SDS011;23337;52.212;9.926;2023-03-22T04:22:30;16.93;;;13.97;;
37483;SDS011;23337;52.212;9.926;2023-03-22T04:24:58;19.70;;;14.50;;
37483;SDS011;23337;52.212;9.926;2023-03-22T04:27:25;16.70;;;14.80;;
37483;SDS011;23337;52.212;9.926;2023-03-22T04:29:51;21.40;;;14.03;;
37483;SDS011;23337;52.212;9.926;2023-03-22T04:32:19;16.90;;;14.03;;
37483;SDS011;23337;52.212;9.926;2023-03-22T04:34:46;16.90;;;14.03;;
37483;SDS011;23337;52.212;9.926;2023-03-22T04:37:13;20.17;;;15.17;;
37483;SDS011;23337;52.212;9.926;2023-03-22T04:39:39;17.90;;;14.53;;
37483;SDS011;23337;52.212;9.926;2023-03-22T04:42:05;19.70;;;14.73;;
37483;SDS011;23337;52.212;9.926;2023-03-22T04:44:32;18.37;;;14.40;;
37483;SDS011;23337;52.212;9.926;2023-03-22T04:46:58;17.90;;;14.50;;
37483;SDS011;23337;52.212;9.926;2023-03-22T04:49:24;20.57;;;14.47;;
37483;SDS011;23337;52.212;9.926;2023-03-22T04:51:53;17.70;;;13.57;;
37483;SDS011;23337;52.212;9.926;2023-03-22T04:54:19;18.10;;;14.00;;
37483;SDS011;23337;52.212;9.926;2023-03-22T04:56:45;17.10;;;14.37;;
37483;SDS011;23337;52.212;9.926;2023-03-22T04:59:11;20.23;;;14.07;;
37483;SDS011;23337;52.212;9.926;2023-03-22T05:01:37;17.17;;;14.17;;
37483;SDS011;23337;52.212;9.926;2023-03-22T05:04:05;18.47;;;13.53;;
37483;SDS011;23337;52.212;9.926;2023-03-22T05:06:31;21.70;;;15.80;;
37483;SDS011;23337;52.212;9.926;2023-03-22T05:08:57;24.60;;;15.03;;
37483;SDS011;23337;52.212;9.926;2023-03-22T05:11:23;16.33;;;12.97;;
37483;SDS011;23337;52.212;9.926;2023-03-22T05:13:52;17.57;;;13.27;;
37483;SDS011;23337;52.212;9.926;2023-03-22T05:16:18;16.83;;;13.03;;
37483;SDS011;23337;52.212;9.926;2023-03-22T05:18:44;18.30;;;13.47;;
37483;SDS011;23337;52.212;9.926;2023-03-22T05:21:14;18.53;;;13.40;;
37483;SDS011;23337;52.212;9.926;2023-03-22T05:23:41;14.43;;;12.20;;
37483;SDS011;23337;52.212;9.926;2023-03-22T05:26:07;15.07;;;13.17;;
37483;SDS011;23337;52.212;9.926;2023-03-22T05:28:34;14.13;;;12.13;;
37483;SDS011;23337;52.212;9.926;2023-03-22T05:31:01;16.27;;;13.43;;
37483;SDS011;23337;52.212;9.926;2023-03-22T05:33:27;13.03;;;11.67;;
37483;SDS011;23337;52.212;9.926;2023-03-22T05:35:53;17.53;;;12.73;;
37483;SDS011;23337;52.212;9.926;2023-03-22T05:38:20;15.83;;;12.70;;
37483;SDS011;23337;52.212;9.926;2023-03-22T05:40:49;16.03;;;12.27;;
37483;SDS011;23337;52.212;9.926;2023-03-22T05:43:15;15.83;;;12.43;;
37483;SDS011;23337;52.212;9.926;2023-03-22T05:45:41;13.67;;;12.27;;
37483;SDS011;23337;52.212;9.926;2023-03-22T05:48:07;20.03;;;13.37;;
37483;SDS011;23337;52.212;9.926;2023-03-22T05:50:33;15.37;;;12.33;;
37483;SDS011;23337;52.212;9.926;2023-03-22T05:52:59;14.87;;;12.57;;
37483;SDS011;23337;52.212;9.926;2023-03-22T05:55:26;14.67;;;12.30;;
37483;SDS011;23337;52.212;9.926;2023-03-22T05:57:54;16.47;;;13.13;;
37483;SDS011;23337;52.212;9.926;2023-03-22T06:00:20;15.40;;;11.97;;
37483;SDS011;23337;52.212;9.926;2023-03-22T06:02:47;18.03;;;12.63;;
37483;SDS011;23337;52.212;9.926;2023-03-22T06:05:16;15.30;;;12.03;;
37483;SDS011;23337;52.212;9.926;2023-03-22T06:07:42;12.97;;;11.60;;
37483;SDS011;23337;52.212;9.926;2023-03-22T06:10:10;17.23;;;12.30;;
37483;SDS011;23337;52.212;9.926;2023-03-22T06:12:36;15.20;;;12.23;;
37483;SDS011;23337;52.212;9.926;2023-03-22T06:15:02;16.40;;;11.37;;
37483;SDS011;23337;52.212;9.926;2023-03-22T06:17:28;14.27;;;11.67;;
37483;SDS011;23337;52.212;9.926;2023-03-22T06:19:54;16.00;;;12.90;;
37483;SDS011;23337;52.212;9.926;2023-03-22T06:22:20;15.00;;;13.03;;
37483;SDS011;23337;52.212;9.926;2023-03-22T06:24:47;14.30;;;12.23;;
37483;SDS011;23337;52.212;9.926;2023-03-22T06:27:13;16.53;;;12.53;;
37483;SDS011;23337;52.212;9.926;2023-03-22T06:29:39;15.70;;;12.93;;
37483;SDS011;23337;52.212;9.926;2023-03-22T06:32:05;16.43;;;13.30;;
37483;SDS011;23337;52.212;9.926;2023-03-22T06:34:31;17.83;;;13.50;;
37483;SDS011;23337;52.212;9.926;2023-03-22T06:36:58;15.67;;;12.83;;
37483;SDS011;23337;52.212;9.926;2023-03-22T06:39:24;17.73;;;13.87;;
37483;SDS011;23337;52.212;9.926;2023-03-22T06:41:50;19.30;;;12.73;;
37483;SDS011;23337;52.212;9.926;2023-03-22T06:44:16;16.97;;;12.43;;
37483;SDS011;23337;52.212;9.926;2023-03-22T06:46:43;14.97;;;12.47;;
37483;SDS011;23337;52.212;9.926;2023-03-22T06:49:09;16.17;;;12.13;;
37483;SDS011;23337;52.212;9.926;2023-03-22T06:51:35;15.70;;;12.93;;
37483;SDS011;23337;52.212;9.926;2023-03-22T06:54:01;20.70;;;14.53;;
37483;SDS011;23337;52.212;9.926;2023-03-22T06:56:27;16.37;;;12.70;;
37483;SDS011;23337;52.212;9.926;2023-03-22T06:58:53;16.07;;;12.00;;
37483;SDS011;23337;52.212;9.926;2023-03-22T07:01:21;18.43;;;13.23;;
37483;SDS011;23337;52.212;9.926;2023-03-22T07:03:47;19.90;;;13.33;;
37483;SDS011;23337;52.212;9.926;2023-03-22T07:06:13;18.60;;;13.00;;
37483;SDS011;23337;52.212;9.926;2023-03-22T07:08:39;14.10;;;12.60;;
37483;SDS011;23337;52.212;9.926;2023-03-22T07:11:06;18.30;;;13.50;;
37483;SDS011;23337;52.212;9.926;2023-03-22T07:13:32;18.27;;;13.57;;
37483;SDS011;23337;52.212;9.926;2023-03-22T07:15:58;18.00;;;12.40;;
37483;SDS011;23337;52.212;9.926;2023-03-22T07:18:25;19.40;;;13.83;;
37483;SDS011;23337;52.212;9.926;2023-03-22T07:20:51;16.40;;;13.40;;
37483;SDS011;23337;52.212;9.926;2023-03-22T07:23:17;15.00;;;13.50;;
37483;SDS011;23337;52.212;9.926;2023-03-22T07:25:44;18.83;;;13.63;;
37483;SDS011;23337;52.212;9.926;2023-03-22T07:28:10;18.20;;;13.90;;
37483;SDS011;23337;52.212;9.926;2023-03-22T07:30:36;17.17;;;13.90;;
37483;SDS011;23337;52.212;9.926;2023-03-22T07:33:06;14.47;;;12.97;;
37483;SDS011;23337;52.212;9.926;2023-03-22T07:35:33;18.80;;;13.60;;
37483;SDS011;23337;52.212;9.926;2023-03-22T07:37:59;16.37;;;13.67;;
37483;SDS011;23337;52.212;9.926;2023-03-22T07:40:26;19.07;;;13.07;;
37483;SDS011;23337;52.212;9.926;2023-03-22T07:42:52;17.80;;;13.37;;
37483;SDS011;23337;52.212;9.926;2023-03-22T07:45:18;17.07;;;12.40;;
37483;SDS011;23337;52.212;9.926;2023-03-22T07:47:44;16.03;;;12.83;;
37483;SDS011;23337;52.212;9.926;2023-03-22T07:50:11;17.47;;;13.20;;
37483;SDS011;23337;52.212;9.926;2023-03-22T07:52:37;13.17;;;11.77;;
37483;SDS011;23337;52.212;9.926;2023-03-22T07:55:04;15.83;;;11.73;;
37483;SDS011;23337;52.212;9.926;2023-03-22T07:57:30;14.20;;;12.63;;
37483;SDS011;23337;52.212;9.926;2023-03-22T07:59:56;13.90;;;11.77;;
37483;SDS011;23337;52.212;9.926;2023-03-22T08:02:22;12.57;;;11.17;;
37483;SDS011;23337;52.212;9.926;2023-03-22T08:04:48;11.03;;;8.53;;
37483;SDS011;23337;52.212;9.926;2023-03-22T08:07:16;11.43;;;10.00;;
37483;SDS011;23337;52.212;9.926;2023-03-22T08:09:42;11.27;;;9.27;;
37483;SDS011;23337;52.212;9.926;2023-03-22T08:12:09;10.60;;;7.87;;
37483;SDS011;23337;52.212;9.926;2023-03-22T08:14:35;14.50;;;8.57;;
37483;SDS011;23337;52.212;9.926;2023-03-22T08:17:02;12.97;;;8.03;;
37483;SDS011;23337;52.212;9.926;2023-03-22T08:19:28;10.53;;;7.97;;
37483;SDS011;23337;52.212;9.926;2023-03-22T08:21:54;10.40;;;7.47;;
37483;SDS011;23337;52.212;9.926;2023-03-22T08:24:20;10.57;;;7.53;;
37483;SDS011;23337;52.212;9.926;2023-03-22T08:26:46;11.73;;;8.33;;
37483;SDS011;23337;52.212;9.926;2023-03-22T08:29:13;11.33;;;7.60;;
37483;SDS011;23337;52.212;9.926;2023-03-22T08:31:40;8.47;;;7.40;;
37483;SDS011;23337;52.212;9.926;2023-03-22T08:34:06;11.60;;;8.90;;
37483;SDS011;23337;52.212;9.926;2023-03-22T08:36:32;11.07;;;7.27;;
37483;SDS011;23337;52.212;9.926;2023-03-22T08:38:58;11.73;;;8.00;;
37483;SDS011;23337;52.212;9.926;2023-03-22T08:41:25;11.57;;;7.50;;
37483;SDS011;23337;52.212;9.926;2023-03-22T08:43:51;10.50;;;7.50;;
37483;SDS011;23337;52.212;9.926;2023-03-22T08:46:17;11.03;;;7.83;;
37483;SDS011;23337;52.212;9.926;2023-03-22T08:48:43;9.17;;;7.63;;
37483;SDS011;23337;52.212;9.926;2023-03-22T08:51:15;11.10;;;7.77;;
37483;SDS011;23337;52.212;9.926;2023-03-22T08:53:41;13.83;;;8.33;;
37483;SDS011;23337;52.212;9.926;2023-03-22T08:56:07;12.13;;;7.80;;
37483;SDS011;23337;52.212;9.926;2023-03-22T08:58:33;9.60;;;7.53;;
37483;SDS011;23337;52.212;9.926;2023-03-22T09:01:00;10.03;;;6.90;;
37483;SDS011;23337;52.212;9.926;2023-03-22T09:03:26;9.83;;;6.50;;
37483;SDS011;23337;52.212;9.926;2023-03-22T09:05:52;10.73;;;7.68;;
37483;SDS011;23337;52.212;9.926;2023-03-22T09:08:18;9.53;;;6.70;;
37483;SDS011;23337;52.212;9.926;2023-03-22T09:10:48;9.20;;;6.70;;
37483;SDS011;23337;52.212;9.926;2023-03-22T09:13:15;7.60;;;6.20;;
37483;SDS011;23337;52.212;9.926;2023-03-22T09:15:42;8.17;;;6.17;;
37483;SDS011;23337;52.212;9.926;2023-03-22T09:18:11;12.47;;;6.47;;
37483;SDS011;23337;52.212;9.926;2023-03-22T09:20:38;7.80;;;5.97;;
37483;SDS011;23337;52.212;9.926;2023-03-22T09:23:04;8.60;;;5.90;;
37483;SDS011;23337;52.212;9.926;2023-03-22T09:25:30;10.43;;;6.03;;
37483;SDS011;23337;52.212;9.926;2023-03-22T09:27:56;9.17;;;6.10;;
37483;SDS011;23337;52.212;9.926;2023-03-22T09:30:22;9.37;;;5.50;;
37483;SDS011;23337;52.212;9.926;2023-03-22T09:32:48;11.17;;;5.80;;
37483;SDS011;23337;52.212;9.926;2023-03-22T09:35:14;8.33;;;5.10;;
37483;SDS011;23337;52.212;9.926;2023-03-22T09:37:40;7.50;;;4.80;;
37483;SDS011;23337;52.212;9.926;2023-03-22T09:40:07;6.17;;;4.03;;
37483;SDS011;23337;52.212;9.926;2023-03-22T09:42:46;6.00;;;4.50;;
37483;SDS011;23337;52.212;9.926;2023-03-22T09:45:17;7.17;;;4.20;;
37483;SDS011;23337;52.212;9.926;2023-03-22T09:47:47;7.97;;;4.07;;
37483;SDS011;23337;52.212;9.926;2023-03-22T09:50:19;5.77;;;4.27;;
37483;SDS011;23337;52.212;9.926;2023-03-22T09:52:45;4.97;;;3.90;;
37483;SDS011;23337;52.212;9.926;2023-03-22T09:58:06;6.47;;;3.90;;
37483;SDS011;23337;52.212;9.926;2023-03-22T10:03:08;4.80;;;3.10;;
37483;SDS011;23337;52.212;9.926;2023-03-22T10:05:42;7.47;;;4.10;;
37483;SDS011;23337;52.212;9.926;2023-03-22T10:10:35;8.97;;;4.33;;
37483;SDS011;23337;52.212;9.926;2023-03-22T10:13:09;8.20;;;3.77;;
37483;SDS011;23337;52.212;9.926;2023-03-22T10:18:07;5.73;;;3.50;;
37483;SDS011;23337;52.212;9.926;2023-03-22T10:23:10;3.13;;;2.57;;
37483;SDS011;23337;52.212;9.926;2023-03-22T10:25:38;3.27;;;2.80;;
37483;SDS011;23337;52.212;9.926;2023-03-22T10:28:18;3.90;;;2.83;;
37483;SDS011;23337;52.212;9.926;2023-03-22T10:30:46;3.53;;;2.57;;
37483;SDS011;23337;52.212;9.926;2023-03-22T10:33:28;4.97;;;2.50;;
37483;SDS011;23337;52.212;9.926;2023-03-22T10:35:56;4.47;;;3.00;;
37483;SDS011;23337;52.212;9.926;2023-03-22T10:38:25;4.70;;;2.60;;
37483;SDS011;23337;52.212;9.926;2023-03-22T10:40:52;4.93;;;2.67;;
37483;SDS011;23337;52.212;9.926;2023-03-22T10:43:41;5.83;;;2.60;;
37483;SDS011;23337;52.212;9.926;2023-03-22T10:46:07;6.60;;;2.90;;
37483;SDS011;23337;52.212;9.926;2023-03-22T10:48:38;4.80;;;2.97;;
37483;SDS011;23337;52.212;9.926;2023-03-22T10:51:05;7.10;;;3.27;;
37483;SDS011;23337;52.212;9.926;2023-03-22T10:53:47;4.87;;;2.63;;
37483;SDS011;23337;52.212;9.926;2023-03-22T10:56:15;3.57;;;2.60;;
37483;SDS011;23337;52.212;9.926;2023-03-22T10:58:44;5.10;;;2.63;;
37483;SDS011;23337;52.212;9.926;2023-03-22T11:01:11;5.53;;;2.73;;
37483;SDS011;23337;52.212;9.926;2023-03-22T11:03:38;4.33;;;2.67;;
37483;SDS011;23337;52.212;9.926;2023-03-22T11:06:09;4.30;;;2.90;;
37483;SDS011;23337;52.212;9.926;2023-03-22T11:16:18;4.10;;;1.90;;
37483;SDS011;23337;52.212;9.926;2023-03-22T11:18:44;4.33;;;2.90;;
37483;SDS011;23337;52.212;9.926;2023-03-22T11:21:10;6.20;;;2.70;;
37483;SDS011;23337;52.212;9.926;2023-03-22T11:23:39;6.13;;;3.23;;
37483;SDS011;23337;52.212;9.926;2023-03-22T11:26:12;5.03;;;2.07;;
37483;SDS011;23337;52.212;9.926;2023-03-22T11:28:44;4.33;;;2.40;;
37483;SDS011;23337;52.212;9.926;2023-03-22T11:31:14;4.67;;;2.73;;
37483;SDS011;23337;52.212;9.926;2023-03-22T11:33:52;4.80;;;2.40;;
37483;SDS011;23337;52.212;9.926;2023-03-22T11:36:19;3.67;;;1.83;;
37483;SDS011;23337;52.212;9.926;2023-03-22T11:38:45;5.93;;;3.07;;
37483;SDS011;23337;52.212;9.926;2023-03-22T11:41:19;4.27;;;2.27;;
37483;SDS011;23337;52.212;9.926;2023-03-22T11:43:46;4.70;;;2.83;;
37483;SDS011;23337;52.212;9.926;2023-03-22T11:46:14;4.80;;;2.33;;
37483;SDS011;23337;52.212;9.926;2023-03-22T11:48:43;3.33;;;2.17;;
37483;SDS011;23337;52.212;9.926;2023-03-22T11:51:11;8.10;;;2.47;;
37483;SDS011;23337;52.212;9.926;2023-03-22T11:53:39;5.47;;;2.40;;
37483;SDS011;23337;52.212;9.926;2023-03-22T11:56:08;3.77;;;2.50;;
37483;SDS011;23337;52.212;9.926;2023-03-22T12:01:03;3.83;;;2.27;;
37483;SDS011;23337;52.212;9.926;2023-03-22T12:03:34;3.20;;;1.77;;
37483;SDS011;23337;52.212;9.926;2023-03-22T12:06:01;3.33;;;2.30;;
37483;SDS011;23337;52.212;9.926;2023-03-22T12:11:02;3.77;;;2.20;;
37483;SDS011;23337;52.212;9.926;2023-03-22T12:16:05;2.87;;;2.27;;
37483;SDS011;23337;52.212;9.926;2023-03-22T12:18:33;3.90;;;2.60;;
37483;SDS011;23337;52.212;9.926;2023-03-22T12:21:02;5.47;;;2.40;;
37483;SDS011;23337;52.212;9.926;2023-03-22T12:23:30;5.07;;;2.30;;
37483;SDS011;23337;52.212;9.926;2023-03-22T12:25:58;4.07;;;2.20;;
37483;SDS011;23337;52.212;9.926;2023-03-22T12:28:32;6.23;;;2.70;;
37483;SDS011;23337;52.212;9.926;2023-03-22T12:31:02;3.87;;;2.10;;
37483;SDS011;23337;52.212;9.926;2023-03-22T12:33:30;4.43;;;2.27;;
37483;SDS011;23337;52.212;9.926;2023-03-22T12:35:58;3.40;;;1.87;;
37483;SDS011;23337;52.212;9.926;2023-03-22T12:41:11;3.83;;;1.87;;
37483;SDS011;23337;52.212;9.926;2023-03-22T12:43:55;4.43;;;2.10;;
37483;SDS011;23337;52.212;9.926;2023-03-22T12:46:24;3.87;;;2.20;;
37483;SDS011;23337;52.212;9.926;2023-03-22T12:49:05;2.70;;;2.07;;
37483;SDS011;23337;52.212;9.926;2023-03-22T12:51:31;4.03;;;2.17;;
37483;SDS011;23337;52.212;9.926;2023-03-22T12:53:58;2.83;;;1.70;;
37483;SDS011;23337;52.212;9.926;2023-03-22T12:56:33;2.73;;;1.93;;
37483;SDS011;23337;52.212;9.926;2023-03-22T12:59:02;2.73;;;2.27;;
37483;SDS011;23337;52.212;9.926;2023-03-22T13:01:34;3.40;;;2.07;;
37483;SDS011;23337;52.212;9.926;2023-03-22T13:04:25;3.53;;;2.23;;
37483;SDS011;23337;52.212;9.926;2023-03-22T13:09:17;2.73;;;1.53;;
37483;SDS011;23337;52.212;9.926;2023-03-22T13:11:44;5.17;;;2.10;;
37483;SDS011;23337;52.212;9.926;2023-03-22T13:14:11;4.67;;;2.53;;
37483;SDS011;23337;52.212;9.926;2023-03-22T13:16:48;3.83;;;1.97;;
37483;SDS011;23337;52.212;9.926;2023-03-22T13:19:34;2.97;;;1.90;;
37483;SDS011;23337;52.212;9.926;2023-03-22T13:22:17;3.00;;;2.10;;
37483;SDS011;23337;52.212;9.926;2023-03-22T13:24:56;5.33;;;2.20;;
37483;SDS011;23337;52.212;9.926;2023-03-22T13:27:31;4.00;;;1.93;;
37483;SDS011;23337;52.212;9.926;2023-03-22T13:29:59;6.30;;;2.70;;
37483;SDS011;23337;52.212;9.926;2023-03-22T13:32:29;3.43;;;2.27;;
37483;SDS011;23337;52.212;9.926;2023-03-22T13:34:57;3.30;;;1.77;;
37483;SDS011;23337;52.212;9.926;2023-03-22T13:37:31;3.70;;;2.07;;
37483;SDS011;23337;52.212;9.926;2023-03-22T13:40:01;2.17;;;1.60;;
37483;SDS011;23337;52.212;9.926;2023-03-22T13:42:39;3.37;;;2.00;;
37483;SDS011;23337;52.212;9.926;2023-03-22T13:45:06;4.47;;;2.13;;
37483;SDS011;23337;52.212;9.926;2023-03-22T13:50:05;4.60;;;2.20;;
37483;SDS011;23337;52.212;9.926;2023-03-22T13:52:41;2.97;;;1.93;;
37483;SDS011;23337;52.212;9.926;2023-03-22T13:55:34;4.03;;;1.93;;
37483;SDS011;23337;52.212;9.926;2023-03-22T13:58:01;4.60;;;2.27;;
37483;SDS011;23337;52.212;9.926;2023-03-22T14:02:55;5.83;;;2.57;;
37483;SDS011;23337;52.212;9.926;2023-03-22T14:05:27;4.33;;;1.83;;
37483;SDS011;23337;52.212;9.926;2023-03-22T14:07:54;4.27;;;1.63;;
37483;SDS011;23337;52.212;9.926;2023-03-22T14:10:23;3.60;;;1.77;;
37483;SDS011;23337;52.212;9.926;2023-03-22T14:12:58;2.97;;;2.00;;
37483;SDS011;23337;52.212;9.926;2023-03-22T14:15:30;3.87;;;1.67;;
37483;SDS011;23337;52.212;9.926;2023-03-22T14:20:23;2.63;;;1.57;;
37483;SDS011;23337;52.212;9.926;2023-03-22T14:22:52;2.77;;;1.60;;
37483;SDS011;23337;52.212;9.926;2023-03-22T14:25:19;5.00;;;1.90;;
37483;SDS011;23337;52.212;9.926;2023-03-22T14:27:46;3.50;;;1.57;;
37483;SDS011;23337;52.212;9.926;2023-03-22T14:30:45;4.80;;;1.67;;
37483;SDS011;23337;52.212;9.926;2023-03-22T14:33:12;3.33;;;1.90;;
37483;SDS011;23337;52.212;9.926;2023-03-22T14:35:44;3.27;;;1.57;;
37483;SDS011;23337;52.212;9.926;2023-03-22T14:38:15;2.90;;;1.80;;
37483;SDS011;23337;52.212;9.926;2023-03-22T14:40:41;5.93;;;1.97;;
37483;SDS011;23337;52.212;9.926;2023-03-22T14:43:15;5.50;;;2.00;;
37483;SDS011;23337;52.212;9.926;2023-03-22T14:45:46;3.17;;;1.57;;
37483;SDS011;23337;52.212;9.926;2023-03-22T14:48:19;4.00;;;1.60;;
37483;SDS011;23337;52.212;9.926;2023-03-22T14:50:48;4.03;;;1.60;;
37483;SDS011;23337;52.212;9.926;2023-03-22T14:53:15;2.73;;;1.50;;
37483;SDS011;23337;52.212;9.926;2023-03-22T14:55:43;2.40;;;1.33;;
37483;SDS011;23337;52.212;9.926;2023-03-22T14:58:11;3.53;;;1.40;;
37483;SDS011;23337;52.212;9.926;2023-03-22T15:00:40;4.33;;;1.30;;
37483;SDS011;23337;52.212;9.926;2023-03-22T15:03:07;3.83;;;1.60;;
37483;SDS011;23337;52.212;9.926;2023-03-22T15:05:35;7.53;;;1.73;;
37483;SDS011;23337;52.212;9.926;2023-03-22T15:10:42;2.63;;;1.87;;
37483;SDS011;23337;52.212;9.926;2023-03-22T15:13:09;3.53;;;1.40;;
37483;SDS011;23337;52.212;9.926;2023-03-22T15:15:37;4.47;;;1.70;;
37483;SDS011;23337;52.212;9.926;2023-03-22T15:18:03;5.70;;;1.73;;
37483;SDS011;23337;52.212;9.926;2023-03-22T15:20:32;2.27;;;1.10;;
37483;SDS011;23337;52.212;9.926;2023-03-22T15:23:04;3.13;;;1.60;;
37483;SDS011;23337;52.212;9.926;2023-03-22T15:25:31;2.63;;;1.33;;
37483;SDS011;23337;52.212;9.926;2023-03-22T15:27:58;2.10;;;1.17;;
37483;SDS011;23337;52.212;9.926;2023-03-22T15:30:25;4.43;;;1.67;;
37483;SDS011;23337;52.212;9.926;2023-03-22T15:32:51;3.60;;;1.43;;
37483;SDS011;23337;52.212;9.926;2023-03-22T15:35:17;4.87;;;1.30;;
37483;SDS011;23337;52.212;9.926;2023-03-22T15:37:50;4.20;;;1.80;;
37483;SDS011;23337;52.212;9.926;2023-03-22T15:43:04;1.83;;;1.17;;
37483;SDS011;23337;52.212;9.926;2023-03-22T15:45:30;3.53;;;1.73;;
37483;SDS011;23337;52.212;9.926;2023-03-22T15:48:04;3.30;;;1.20;;
37483;SDS011;23337;52.212;9.926;2023-03-22T15:50:30;5.83;;;1.47;;
37483;SDS011;23337;52.212;9.926;2023-03-22T15:53:01;4.27;;;1.43;;
37483;SDS011;23337;52.212;9.926;2023-03-22T15:55:34;3.10;;;1.43;;
37483;SDS011;23337;52.212;9.926;2023-03-22T15:58:01;4.20;;;1.40;;
37483;SDS011;23337;52.212;9.926;2023-03-22T16:00:32;3.87;;;1.30;;
37483;SDS011;23337;52.212;9.926;2023-03-22T16:02:59;1.97;;;1.30;;
37483;SDS011;23337;52.212;9.926;2023-03-22T16:05:26;2.03;;;0.93;;
37483;SDS011;23337;52.212;9.926;2023-03-22T16:07:53;2.70;;;1.37;;
37483;SDS011;23337;52.212;9.926;2023-03-22T16:10:22;2.03;;;1.37;;